createdAt,value
2023-02-19T00:02:09.735Z,11.24
2023-02-19T00:07:26.027Z,11.18
2023-02-19T00:12:28.166Z,11.13
2023-02-19T00:17:33.714Z,11.05
2023-02-19T00:22:40.173Z,10.98
2023-02-19T00:27:48.509Z,10.94
2023-02-19T00:32:51.951Z,10.87
2023-02-19T00:37:54.405Z,10.80
2023-02-19T00:43:01.112Z,10.77
2023-02-19T00:48:07.462Z,10.72
2023-02-19T00:53:16.129Z,10.65
2023-02-19T00:58:21.604Z,10.59
2023-02-19T01:03:34.216Z,10.56
2023-02-19T01:08:46.397Z,10.51
2023-02-19T01:13:53.402Z,10.47
2023-02-19T01:19:01.747Z,10.45
2023-02-19T01:24:08.923Z,10.46
2023-02-19T01:29:18.428Z,10.46
2023-02-19T01:34:24.977Z,10.47
2023-02-19T01:44:51.895Z,10.49
2023-02-19T01:50:04.060Z,10.48
2023-02-19T01:55:12.013Z,10.45
2023-02-19T02:05:26.952Z,10.45
2023-02-19T02:10:39.978Z,10.43
2023-02-19T02:16:26.597Z,10.41
2023-02-19T02:22:33.722Z,10.35
2023-02-19T02:28:20.540Z,10.30
2023-02-19T02:33:54.187Z,10.28
2023-02-19T02:39:00.652Z,10.27
2023-02-19T02:44:09.072Z,10.20
2023-02-19T02:49:27.499Z,10.14
2023-02-19T02:54:55.233Z,10.08
2023-02-19T03:00:03.180Z,10.06
2023-02-19T03:05:42.558Z,10.01
2023-02-19T03:11:25.736Z,9.96
2023-02-19T03:16:56.292Z,9.92
2023-02-19T03:22:27.864Z,9.93
2023-02-19T03:27:47.040Z,9.96
2023-02-19T03:33:04.514Z,10.02
2023-02-19T03:38:39.400Z,10.02
2023-02-19T03:44:07.096Z,10.06
2023-02-19T03:49:37.852Z,10.03
2023-02-19T03:55:08.197Z,10.01
2023-02-19T04:00:39.579Z,9.98
2023-02-19T04:05:53.020Z,9.96
2023-02-19T04:11:10.929Z,9.92
2023-02-19T04:16:30.160Z,9.87
2023-02-19T04:21:39.120Z,9.86
2023-02-19T04:26:45.454Z,9.84
2023-02-19T04:31:50.721Z,9.82
2023-02-19T04:36:57.013Z,9.78
2023-02-19T04:42:03.591Z,9.72
2023-02-19T04:47:12.616Z,9.66
2023-02-19T04:52:18.541Z,9.60
2023-02-19T04:57:23.201Z,9.54
2023-02-19T05:11:55.771Z,9.72
2023-02-19T05:32:41.790Z,9.54
2023-02-19T05:37:48.391Z,9.41
2023-02-19T05:42:55.108Z,9.33
2023-02-19T05:47:59.849Z,9.32
2023-02-19T05:53:05.239Z,9.32
2023-02-19T05:58:10.622Z,9.27
2023-02-19T06:03:18.261Z,9.27
2023-02-19T06:08:29.457Z,9.24
2023-02-19T06:13:34.087Z,9.17
2023-02-19T06:18:47.389Z,9.11
2023-02-19T06:24:02.948Z,9.06
2023-02-19T06:29:07.532Z,8.99
2023-02-19T06:34:21.999Z,8.94
2023-02-19T06:39:27.248Z,8.92
2023-02-19T06:44:32.084Z,8.91
2023-02-19T06:49:44.449Z,8.89
2023-02-19T06:54:51.510Z,8.90
2023-02-19T07:00:00.435Z,8.90
2023-02-19T07:05:15.446Z,8.93
2023-02-19T07:10:20.855Z,8.93
2023-02-19T07:15:27.961Z,8.91
2023-02-19T07:20:30.985Z,8.93
2023-02-19T07:25:44.749Z,9.00
2023-02-19T07:31:04.163Z,9.08
2023-02-19T07:36:15.364Z,9.19
2023-02-19T07:41:23.452Z,9.34
2023-02-19T07:46:37.176Z,9.45
2023-02-19T07:51:42.409Z,9.62
2023-02-19T07:56:45.490Z,9.93
2023-02-19T08:02:10.359Z,10.59
2023-02-19T08:07:20.837Z,11.53
2023-02-19T08:12:43.491Z,12.31
2023-02-19T08:17:52.522Z,12.89
2023-02-19T08:23:00.907Z,13.33
2023-02-19T08:28:09.319Z,13.72
2023-02-19T08:33:18.843Z,13.87
2023-02-19T08:38:26.522Z,14.09
2023-02-19T08:43:31.479Z,14.39
2023-02-19T08:48:38.616Z,14.73
2023-02-19T08:53:50.281Z,14.97
2023-02-19T08:59:04.708Z,15.12
2023-02-19T09:04:14.438Z,15.24
2023-02-19T09:09:21.021Z,15.36
2023-02-19T09:14:32.116Z,15.49
2023-02-19T09:19:49.426Z,15.53
2023-02-19T09:25:01.927Z,15.67
2023-02-19T09:30:05.506Z,15.89
2023-02-19T09:35:19.566Z,16.19
2023-02-19T09:40:36.828Z,16.40
2023-02-19T09:45:41.505Z,16.61
2023-02-19T09:51:04.065Z,16.79
2023-02-19T09:56:07.621Z,16.97
2023-02-19T10:01:22.355Z,17.07
2023-02-19T10:06:30.350Z,17.25
2023-02-19T10:11:55.420Z,17.53
2023-02-19T10:17:10.239Z,17.86
2023-02-19T10:22:16.670Z,18.06
2023-02-19T10:27:20.745Z,18.26
2023-02-19T10:32:27.148Z,18.53
2023-02-19T10:37:34.791Z,18.75
2023-02-19T10:42:53.838Z,19.02
2023-02-19T10:48:07.504Z,19.20
2023-02-19T10:53:31.693Z,19.39
2023-02-19T10:58:46.201Z,19.55
2023-02-19T11:04:35.564Z,19.69
2023-02-19T11:10:32.756Z,19.84
2023-02-19T11:15:41.946Z,19.88
2023-02-19T11:21:00.460Z,19.68
2023-02-19T11:26:21.973Z,19.57
2023-02-19T11:31:40.417Z,19.39
2023-02-19T11:37:16.080Z,19.25
2023-02-19T11:42:51.488Z,19.03
2023-02-19T11:48:42.220Z,18.92
2023-02-19T11:53:54.288Z,18.91
2023-02-19T11:59:29.287Z,19.02
2023-02-19T12:04:50.662Z,19.05
2023-02-19T12:10:44.574Z,18.87
2023-02-19T12:22:36.270Z,18.88
2023-02-19T12:27:49.077Z,19.04
2023-02-19T12:33:09.756Z,19.12
2023-02-19T12:38:33.802Z,19.29
2023-02-19T12:44:03.624Z,19.48
2023-02-19T12:49:34.891Z,19.69
2023-02-19T12:54:47.846Z,19.81
2023-02-19T13:00:05.680Z,20.00
2023-02-19T13:05:47.604Z,20.04
2023-02-19T13:11:12.886Z,19.91
2023-02-19T13:16:26.197Z,19.88
2023-02-19T13:21:59.319Z,19.70
2023-02-19T13:27:44.657Z,19.76
2023-02-19T13:33:06.124Z,19.51
2023-02-19T13:38:17.629Z,19.20
2023-02-19T13:43:43.665Z,18.99
2023-02-19T13:48:48.776Z,18.74
2023-02-19T13:54:15.101Z,18.54
2023-02-19T13:59:40.562Z,18.29
2023-02-19T14:05:14.436Z,17.95
2023-02-19T14:11:06.277Z,17.67
2023-02-19T14:16:42.840Z,17.36
2023-02-19T14:21:50.492Z,17.24
2023-02-19T14:27:45.928Z,17.12
2023-02-19T14:33:12.172Z,17.14
2023-02-19T14:39:45.526Z,17.09
2023-02-19T14:45:11.881Z,17.14
2023-02-19T14:50:48.102Z,17.24
2023-02-19T14:56:18.264Z,17.33
2023-02-19T15:01:33.164Z,17.46
2023-02-19T15:06:39.392Z,17.41
2023-02-19T15:11:43.895Z,17.46
2023-02-19T15:16:53.989Z,17.48
2023-02-19T15:22:05.392Z,17.39
2023-02-19T15:27:20.990Z,17.32
2023-02-19T15:32:34.111Z,17.30
2023-02-19T15:37:45.936Z,17.25
2023-02-19T15:42:51.272Z,17.17
2023-02-19T15:48:01.074Z,17.15
2023-02-19T15:53:35.629Z,17.19
2023-02-19T15:58:55.872Z,17.26
2023-02-19T16:04:07.091Z,17.30
2023-02-19T16:09:29.008Z,17.28
2023-02-19T16:14:44.887Z,17.27
2023-02-19T16:20:12.735Z,17.32
2023-02-19T16:25:49.608Z,17.23
2023-02-19T16:31:09.557Z,17.11
2023-02-19T16:36:46.601Z,16.94
2023-02-19T16:41:56.210Z,16.80
2023-02-19T16:47:22.856Z,16.68
2023-02-19T16:52:38.667Z,16.58
2023-02-19T16:57:43.385Z,16.46
2023-02-19T17:02:52.416Z,16.36
2023-02-19T17:07:56.055Z,16.25
2023-02-19T17:13:04.841Z,16.12
2023-02-19T17:18:27.878Z,15.98
2023-02-19T17:23:41.521Z,15.84
2023-02-19T17:28:57.151Z,15.70
2023-02-19T17:34:12.204Z,15.56
2023-02-19T17:39:18.578Z,15.41
2023-02-19T17:44:24.329Z,15.29
2023-02-19T17:49:34.355Z,15.18
2023-02-19T17:54:40.115Z,15.06
2023-02-19T17:59:51.781Z,14.98
2023-02-19T18:05:00.400Z,14.91
2023-02-19T18:10:11.734Z,14.83
2023-02-19T18:15:29.932Z,14.74
2023-02-19T18:25:51.008Z,14.64
2023-02-19T18:30:56.951Z,14.59
2023-02-19T18:36:00.623Z,14.54
2023-02-19T18:41:05.995Z,14.50
2023-02-19T18:46:21.884Z,14.46
2023-02-19T18:51:29.267Z,14.42
2023-02-19T18:56:46.748Z,14.42
2023-02-19T19:01:55.274Z,14.34
2023-02-19T19:06:59.213Z,14.29
2023-02-19T19:12:06.963Z,14.22
2023-02-19T19:17:10.799Z,14.18
2023-02-19T19:22:23.005Z,14.14
2023-02-19T19:27:30.256Z,14.10
2023-02-19T19:32:36.300Z,14.09
2023-02-19T19:37:43.453Z,14.06
2023-02-19T19:43:01.416Z,14.02
2023-02-19T19:48:06.488Z,13.96
2023-02-19T19:53:13.278Z,13.92
2023-02-19T19:58:20.922Z,13.87
2023-02-19T20:03:29.505Z,13.82
2023-02-19T20:08:40.139Z,13.77
2023-02-19T20:13:59.464Z,13.72
2023-02-19T20:19:15.167Z,13.67
2023-02-19T20:24:19.826Z,13.65
2023-02-19T20:29:25.493Z,13.61
2023-02-19T20:34:53.881Z,13.56
2023-02-19T20:39:58.743Z,13.47
2023-02-19T20:45:07.718Z,13.42
2023-02-19T20:50:16.538Z,13.38
2023-02-19T20:55:22.445Z,13.34
2023-02-19T21:00:29.721Z,13.30
2023-02-19T21:05:32.615Z,13.21
2023-02-19T21:10:46.324Z,13.20
2023-02-19T21:15:53.018Z,13.17
2023-02-19T21:21:02.120Z,13.11
2023-02-19T21:26:07.931Z,13.03
2023-02-19T21:31:12.889Z,12.96
2023-02-19T21:36:20.331Z,12.90
2023-02-19T21:41:27.546Z,12.88
2023-02-19T21:46:35.539Z,12.82
2023-02-19T21:51:45.593Z,12.75
2023-02-19T21:56:53.707Z,12.68
2023-02-19T22:02:03.155Z,12.64
2023-02-19T22:07:11.423Z,12.61
2023-02-19T22:17:35.543Z,12.55
2023-02-19T22:22:44.537Z,12.51
2023-02-19T22:27:56.895Z,12.45
2023-02-19T22:33:04.062Z,12.43
2023-02-19T22:38:08.771Z,12.44
2023-02-19T22:43:25.188Z,12.42
2023-02-19T22:48:42.307Z,12.42
2023-02-19T22:54:00.670Z,12.41
2023-02-19T22:59:06.333Z,12.37
2023-02-19T23:04:13.838Z,12.32
2023-02-19T23:09:24.372Z,12.30
2023-02-19T23:14:35.928Z,12.22
2023-02-19T23:19:42.111Z,12.15
2023-02-19T23:24:54.569Z,12.10
2023-02-19T23:35:23.510Z,12.02
2023-02-19T23:40:29.430Z,12.04
2023-02-19T23:45:37.369Z,12.10
2023-02-19T23:50:42.467Z,12.17
2023-02-19T23:55:47.594Z,12.21
